Time;durP1;ratioP1;P1;durP2;ratioP2;P2;SDS_P1;SDS_P2;PMS_P1;PMS_P2;Temp;Humidity;BMP_temperature;BMP_pressure;BME280_temperature;BME280_humidity;BME280_pressure;Samples;Min_cycle;Max_cycle;Signal;HPM_P1;HPM_P2
2020/12/03 00:00:29;;;;;;;77.30;40.58;;;;;;;;;;5083806;28;20704;-76
2020/12/03 00:02:56;;;;;;;75.78;39.92;;;;;;;;;;5091011;28;20183;-75
2020/12/03 00:05:22;;;;;;;82.63;41.17;;;;;;;;;;5081698;28;20188;-77
2020/12/03 00:07:48;;;;;;;80.15;41.78;;;;;;;;;;5072658;28;20254;-75
2020/12/03 00:10:15;;;;;;;84.93;41.78;;;;;;;;;;5081817;28;20187;-76
2020/12/03 00:12:41;;;;;;;80.47;41.50;;;;;;;;;;5093017;28;20254;-75
2020/12/03 00:15:07;;;;;;;78.53;41.95;;;;;;;;;;5085697;28;20245;-76
2020/12/03 00:17:33;;;;;;;83.20;42.83;;;;;;;;;;5093348;28;20194;-75
2020/12/03 00:20:15;;;;;;;94.30;42.03;;;;;;;;;;5088212;28;20184;-75
2020/12/03 00:22:41;;;;;;;77.28;41.85;;;;;;;;;;5076358;28;20175;-75
2020/12/03 00:25:08;;;;;;;75.05;40.55;;;;;;;;;;5078884;28;20241;-73
2020/12/03 00:27:34;;;;;;;73.50;38.40;;;;;;;;;;5082714;28;20208;-75
2020/12/03 00:30:00;;;;;;;77.68;39.28;;;;;;;;;;5080600;28;20175;-73
2020/12/03 00:32:26;;;;;;;75.88;40.65;;;;;;;;;;5092468;28;20224;-75
2020/12/03 00:34:52;;;;;;;78.40;39.88;;;;;;;;;;5072987;28;20927;-74
2020/12/03 00:37:18;;;;;;;73.00;40.53;;;;;;;;;;5082592;28;20207;-78
2020/12/03 00:39:44;;;;;;;74.93;41.28;;;;;;;;;;5073017;28;20180;-75
2020/12/03 00:42:10;;;;;;;78.35;40.33;;;;;;;;;;5080629;28;20191;-73
2020/12/03 00:44:36;;;;;;;72.45;39.75;;;;;;;;;;5072549;28;20184;-77
2020/12/03 00:47:03;;;;;;;77.30;40.95;;;;;;;;;;5078624;28;20183;-76
2020/12/03 00:49:29;;;;;;;77.88;41.00;;;;;;;;;;5072594;28;20168;-72
2020/12/03 00:51:55;;;;;;;74.05;38.95;;;;;;;;;;5084632;28;20549;-73
2020/12/03 00:54:21;;;;;;;75.90;40.72;;;;;;;;;;5072221;28;20176;-74
2020/12/03 00:56:48;;;;;;;74.32;41.03;;;;;;;;;;5082414;28;20194;-75
2020/12/03 00:59:14;;;;;;;74.60;39.65;;;;;;;;;;5078368;28;20241;-76
2020/12/03 01:01:40;;;;;;;79.13;40.10;;;;;;;;;;5089860;28;20180;-74
2020/12/03 01:04:06;;;;;;;72.28;39.97;;;;;;;;;;5089941;28;20648;-75
2020/12/03 01:06:32;;;;;;;72.38;37.97;;;;;;;;;;5092037;28;20205;-77
2020/12/03 01:08:58;;;;;;;76.03;40.88;;;;;;;;;;5094078;28;20214;-75
2020/12/03 01:11:24;;;;;;;83.57;43.05;;;;;;;;;;5094044;28;20202;-75
2020/12/03 01:13:50;;;;;;;75.80;40.13;;;;;;;;;;5092585;28;20270;-72
2020/12/03 01:16:20;;;;;;;76.50;41.58;;;;;;;;;;5075172;28;20183;-75
2020/12/03 01:18:47;;;;;;;70.07;38.30;;;;;;;;;;5075197;28;20274;-75
2020/12/03 01:21:17;;;;;;;68.70;39.38;;;;;;;;;;5085304;28;20179;-75
2020/12/03 01:23:43;;;;;;;72.05;39.45;;;;;;;;;;5095346;28;20180;-73
2020/12/03 01:26:09;;;;;;;71.55;39.35;;;;;;;;;;5095483;28;20184;-73
2020/12/03 01:28:35;;;;;;;72.05;38.75;;;;;;;;;;5080437;28;20683;-76
2020/12/03 01:31:03;;;;;;;72.35;38.65;;;;;;;;;;5075113;28;20199;-73
2020/12/03 01:33:30;;;;;;;75.57;39.65;;;;;;;;;;5074731;28;20181;-74
2020/12/03 01:35:56;;;;;;;71.38;39.22;;;;;;;;;;5075090;28;20187;-74
2020/12/03 01:38:22;;;;;;;72.50;37.53;;;;;;;;;;5074558;28;20628;-72
2020/12/03 01:40:51;;;;;;;68.78;38.97;;;;;;;;;;5075046;28;20309;-74
2020/12/03 01:43:17;;;;;;;79.10;40.15;;;;;;;;;;5088703;28;20312;-74
2020/12/03 01:45:49;;;;;;;73.80;39.88;;;;;;;;;;5092705;28;20175;-73
2020/12/03 01:48:33;;;;;;;64.70;36.25;;;;;;;;;;5081321;28;20206;-76
2020/12/03 01:51:00;;;;;;;62.35;36.33;;;;;;;;;;5081556;28;20628;-75
2020/12/03 01:53:26;;;;;;;62.80;38.05;;;;;;;;;;5092332;28;20179;-76
2020/12/03 01:55:53;;;;;;;70.72;37.50;;;;;;;;;;5094829;28;20180;-75
2020/12/03 01:58:28;;;;;;;67.78;38.75;;;;;;;;;;5090125;28;20333;-77
2020/12/03 02:00:54;;;;;;;74.18;39.80;;;;;;;;;;5094939;28;20190;-74
2020/12/03 02:03:20;;;;;;;64.63;38.05;;;;;;;;;;5091340;28;20197;-78
2020/12/03 02:05:46;;;;;;;69.38;38.88;;;;;;;;;;5094413;28;20176;-77
2020/12/03 02:08:12;;;;;;;73.20;39.10;;;;;;;;;;5094206;28;20203;-75
2020/12/03 02:10:38;;;;;;;71.15;37.92;;;;;;;;;;5093987;28;20536;-75
2020/12/03 02:13:04;;;;;;;68.25;36.67;;;;;;;;;;5094271;28;20210;-75
2020/12/03 02:15:30;;;;;;;70.72;41.42;;;;;;;;;;5094130;28;20180;-75
2020/12/03 02:17:57;;;;;;;72.60;38.53;;;;;;;;;;5086944;28;20203;-73
2020/12/03 02:20:23;;;;;;;68.30;38.03;;;;;;;;;;5093968;28;20190;-76
2020/12/03 02:22:49;;;;;;;70.25;38.45;;;;;;;;;;5093753;28;20183;-75
2020/12/03 02:25:17;;;;;;;60.85;36.85;;;;;;;;;;5093797;28;20179;-76
2020/12/03 02:27:43;;;;;;;65.28;38.08;;;;;;;;;;5089948;28;20200;-74
2020/12/03 02:30:11;;;;;;;66.80;38.20;;;;;;;;;;5080817;28;20209;-75
2020/12/03 02:32:37;;;;;;;73.45;39.90;;;;;;;;;;5088436;28;20192;-74
2020/12/03 02:35:04;;;;;;;69.25;37.55;;;;;;;;;;5093877;28;20180;-73
2020/12/03 02:37:30;;;;;;;66.50;39.05;;;;;;;;;;5093612;28;20195;-74
2020/12/03 02:39:57;;;;;;;78.07;40.60;;;;;;;;;;5093672;28;20171;-75
2020/12/03 02:42:23;;;;;;;69.85;40.90;;;;;;;;;;5080294;28;20176;-73
2020/12/03 02:44:49;;;;;;;62.75;38.03;;;;;;;;;;5080213;28;20191;-76
2020/12/03 02:47:17;;;;;;;64.20;37.33;;;;;;;;;;5083115;28;20203;-74
2020/12/03 02:49:43;;;;;;;65.05;37.03;;;;;;;;;;5075701;28;20549;-76
2020/12/03 02:52:13;;;;;;;67.30;35.90;;;;;;;;;;5093820;28;20205;-74
2020/12/03 02:54:40;;;;;;;71.68;39.10;;;;;;;;;;5093252;28;20203;-76
2020/12/03 02:57:06;;;;;;;68.45;38.53;;;;;;;;;;5081518;28;20574;-74
2020/12/03 02:59:32;;;;;;;66.15;37.63;;;;;;;;;;5081871;28;20172;-77
2020/12/03 03:01:59;;;;;;;67.28;37.97;;;;;;;;;;5091336;28;20221;-74
2020/12/03 03:04:25;;;;;;;67.10;37.55;;;;;;;;;;5090852;28;20601;-76
2020/12/03 03:06:52;;;;;;;62.78;37.22;;;;;;;;;;5093281;28;20252;-73
2020/12/03 03:09:18;;;;;;;64.45;37.92;;;;;;;;;;5084977;28;20191;-75
2020/12/03 03:11:44;;;;;;;64.32;37.95;;;;;;;;;;5079168;28;20680;-76
2020/12/03 03:14:10;;;;;;;63.17;37.63;;;;;;;;;;5084497;28;20553;-74
2020/12/03 03:16:36;;;;;;;61.10;36.70;;;;;;;;;;5091864;28;20183;-75
2020/12/03 03:19:03;;;;;;;62.70;35.97;;;;;;;;;;5093273;28;20198;-73
2020/12/03 03:21:29;;;;;;;59.25;35.90;;;;;;;;;;5086371;28;20225;-73
2020/12/03 03:23:55;;;;;;;69.40;38.15;;;;;;;;;;5072884;28;20637;-74
2020/12/03 03:26:21;;;;;;;61.67;35.63;;;;;;;;;;5086911;28;20520;-76
2020/12/03 03:28:48;;;;;;;63.08;35.13;;;;;;;;;;5092919;28;20199;-74
2020/12/03 03:31:14;;;;;;;69.50;39.25;;;;;;;;;;5092638;28;20187;-76
2020/12/03 03:33:40;;;;;;;58.80;35.65;;;;;;;;;;5082958;28;20172;-75
2020/12/03 03:36:06;;;;;;;61.75;36.03;;;;;;;;;;5072928;28;20218;-73
2020/12/03 03:38:32;;;;;;;63.58;37.15;;;;;;;;;;5084928;28;20191;-75
2020/12/03 03:40:58;;;;;;;59.53;34.25;;;;;;;;;;5077369;28;20188;-72
2020/12/03 03:43:24;;;;;;;61.10;37.33;;;;;;;;;;5079237;28;20172;-73
2020/12/03 03:45:50;;;;;;;57.92;35.03;;;;;;;;;;5092588;28;20186;-77
2020/12/03 03:48:17;;;;;;;66.10;35.67;;;;;;;;;;5092719;28;20187;-74
2020/12/03 03:50:43;;;;;;;63.60;37.28;;;;;;;;;;5078982;28;20179;-74
2020/12/03 03:53:09;;;;;;;62.92;35.83;;;;;;;;;;5072799;28;20236;-75
2020/12/03 03:55:35;;;;;;;64.78;37.15;;;;;;;;;;5076995;28;20174;-73
2020/12/03 03:58:01;;;;;;;63.67;33.55;;;;;;;;;;5090922;28;20249;-73
2020/12/03 04:00:27;;;;;;;61.30;35.72;;;;;;;;;;5092498;28;20245;-75
2020/12/03 04:02:53;;;;;;;60.08;33.30;;;;;;;;;;5075471;28;20549;-75
2020/12/03 04:05:19;;;;;;;58.85;35.67;;;;;;;;;;5076086;28;20520;-74
2020/12/03 04:07:45;;;;;;;62.13;35.35;;;;;;;;;;5085148;28;20548;-74
2020/12/03 04:10:12;;;;;;;53.35;32.75;;;;;;;;;;5092997;28;20184;-73
2020/12/03 04:12:39;;;;;;;66.35;35.85;;;;;;;;;;5078844;28;20210;-75
2020/12/03 04:15:05;;;;;;;59.22;33.75;;;;;;;;;;5092387;28;20172;-75
2020/12/03 04:17:36;;;;;;;57.63;35.35;;;;;;;;;;5075333;28;20192;-76
2020/12/03 04:20:02;;;;;;;57.35;33.83;;;;;;;;;;5082290;28;20633;-76
2020/12/03 04:22:28;;;;;;;63.80;37.05;;;;;;;;;;5075256;28;20188;-76
2020/12/03 04:24:54;;;;;;;60.55;35.50;;;;;;;;;;5076976;28;20175;-76
2020/12/03 04:27:20;;;;;;;59.25;35.10;;;;;;;;;;5088902;28;20207;-75
2020/12/03 04:29:46;;;;;;;63.78;35.70;;;;;;;;;;5082578;28;20206;-73
2020/12/03 04:32:12;;;;;;;62.17;35.30;;;;;;;;;;5086452;28;20262;-75
2020/12/03 04:34:38;;;;;;;69.05;37.15;;;;;;;;;;5076494;28;20172;-77
2020/12/03 04:37:04;;;;;;;60.88;35.45;;;;;;;;;;5093268;28;20175;-76
2020/12/03 04:39:30;;;;;;;62.47;35.40;;;;;;;;;;5092737;28;20179;-76
2020/12/03 04:41:56;;;;;;;61.75;35.55;;;;;;;;;;5075599;28;20176;-76
2020/12/03 04:44:27;;;;;;;61.83;34.65;;;;;;;;;;5072552;28;20529;-76
2020/12/03 04:47:12;;;;;;;59.92;35.03;;;;;;;;;;5090344;28;20198;-74
2020/12/03 04:49:47;;;;;;;57.58;34.90;;;;;;;;;;5090153;28;20214;-75
2020/12/03 04:52:21;;;;;;;62.90;37.33;;;;;;;;;;5095929;28;20190;-74
2020/12/03 04:54:58;;;;;;;66.65;37.38;;;;;;;;;;5092646;28;20178;-74
2020/12/03 04:57:30;;;;;;;59.80;34.83;;;;;;;;;;5081014;28;20211;-75
2020/12/03 05:00:15;;;;;;;60.55;34.88;;;;;;;;;;5085371;28;20259;-75
2020/12/03 05:02:47;;;;;;;64.28;37.10;;;;;;;;;;5094967;28;20183;-76
2020/12/03 05:05:40;;;;;;;64.30;35.90;;;;;;;;;;5096076;28;20179;-75
2020/12/03 05:08:09;;;;;;;61.17;34.10;;;;;;;;;;5095305;28;20242;-74
2020/12/03 05:10:44;;;;;;;59.67;33.33;;;;;;;;;;5104044;28;20178;-73
2020/12/03 05:13:21;;;;;;;59.50;35.47;;;;;;;;;;5084666;28;20364;-75
2020/12/03 05:15:50;;;;;;;57.60;35.30;;;;;;;;;;5091775;28;20201;-75
2020/12/03 05:18:22;;;;;;;63.30;37.50;;;;;;;;;;5086475;28;20904;-76
2020/12/03 05:20:49;;;;;;;62.55;36.40;;;;;;;;;;5081552;28;20167;-76
2020/12/03 05:23:30;;;;;;;57.83;34.33;;;;;;;;;;5083837;28;20184;-73
2020/12/03 05:25:57;;;;;;;62.97;34.83;;;;;;;;;;5076133;28;20221;-74
2020/12/03 05:28:35;;;;;;;63.38;34.92;;;;;;;;;;5082012;28;20250;-73
2020/12/03 05:31:10;;;;;;;64.90;36.35;;;;;;;;;;5090647;28;20655;-74
2020/12/03 05:33:36;;;;;;;59.22;35.47;;;;;;;;;;5079319;28;20229;-75
2020/12/03 05:36:02;;;;;;;57.97;34.85;;;;;;;;;;5074994;28;20202;-76
2020/12/03 05:38:28;;;;;;;56.90;33.15;;;;;;;;;;5074838;28;20199;-74
2020/12/03 05:40:56;;;;;;;61.38;35.40;;;;;;;;;;5084806;28;20261;-72
2020/12/03 05:43:22;;;;;;;60.70;34.97;;;;;;;;;;5082730;28;20173;-73
2020/12/03 05:45:49;;;;;;;64.45;34.50;;;;;;;;;;5076264;28;20503;-76
2020/12/03 05:48:16;;;;;;;60.92;32.50;;;;;;;;;;5078132;28;20286;-72
2020/12/03 05:50:43;;;;;;;62.28;36.20;;;;;;;;;;5091198;28;20183;-74
2020/12/03 05:53:09;;;;;;;60.85;35.65;;;;;;;;;;5094916;28;20207;-74
2020/12/03 05:55:35;;;;;;;58.67;34.72;;;;;;;;;;5086186;28;20583;-75
2020/12/03 05:58:20;;;;;;;56.00;33.10;;;;;;;;;;5077005;28;20196;-75
2020/12/03 06:00:46;;;;;;;66.53;35.70;;;;;;;;;;5079339;28;20571;-75
2020/12/03 06:03:21;;;;;;;55.70;32.92;;;;;;;;;;5088922;28;20234;-75
2020/12/03 06:05:52;;;;;;;57.92;34.88;;;;;;;;;;5094281;28;20179;-72
2020/12/03 06:08:25;;;;;;;62.15;36.75;;;;;;;;;;5086111;28;20684;-72
2020/12/03 06:10:54;;;;;;;56.25;33.88;;;;;;;;;;5088183;28;20210;-73
2020/12/03 06:13:38;;;;;;;62.05;35.42;;;;;;;;;;5093486;28;20210;-72
2020/12/03 06:16:19;;;;;;;59.80;32.90;;;;;;;;;;5089893;28;20179;-73
2020/12/03 06:18:47;;;;;;;63.33;36.15;;;;;;;;;;5080597;28;20321;-73
2020/12/03 06:21:26;;;;;;;58.63;34.92;;;;;;;;;;5091366;28;20175;-76
2020/12/03 06:24:15;;;;;;;67.10;35.20;;;;;;;;;;5094095;28;20175;-75
2020/12/03 06:26:45;;;;;;;62.72;34.78;;;;;;;;;;5088787;28;20273;-75
2020/12/03 06:29:17;;;;;;;65.03;34.88;;;;;;;;;;5080866;28;20199;-76
2020/12/03 06:31:43;;;;;;;58.88;33.95;;;;;;;;;;5088627;28;20187;-74
2020/12/03 06:34:25;;;;;;;68.25;37.50;;;;;;;;;;5093936;28;20171;-76
2020/12/03 06:36:55;;;;;;;61.20;35.40;;;;;;;;;;5094054;28;20667;-74
2020/12/03 06:39:25;;;;;;;64.38;37.03;;;;;;;;;;5092831;28;20262;-77
2020/12/03 06:41:57;;;;;;;64.63;35.90;;;;;;;;;;5093099;28;20210;-75
2020/12/03 06:44:23;;;;;;;67.30;39.17;;;;;;;;;;5082217;28;20246;-76
2020/12/03 06:47:03;;;;;;;61.85;35.03;;;;;;;;;;5090408;28;20184;-76
2020/12/03 06:49:29;;;;;;;62.70;34.97;;;;;;;;;;5086881;28;20177;-75
2020/12/03 06:51:55;;;;;;;64.82;36.33;;;;;;;;;;5073609;28;20207;-73
2020/12/03 06:54:21;;;;;;;67.07;35.00;;;;;;;;;;5086760;28;20172;-72
2020/12/03 06:57:03;;;;;;;62.85;36.83;;;;;;;;;;5086214;28;20184;-76
2020/12/03 06:59:49;;;;;;;63.60;35.88;;;;;;;;;;5080297;28;20269;-74
2020/12/03 07:02:34;;;;;;;66.85;37.05;;;;;;;;;;5093051;28;20175;-74
2020/12/03 07:05:07;;;;;;;71.05;38.28;;;;;;;;;;5080903;28;20237;-75
2020/12/03 07:07:48;;;;;;;64.60;35.92;;;;;;;;;;5093140;28;20207;-75
2020/12/03 07:10:14;;;;;;;72.00;37.15;;;;;;;;;;5101458;28;20186;-73
2020/12/03 07:12:43;;;;;;;63.38;36.13;;;;;;;;;;5090365;28;20209;-75
2020/12/03 07:15:36;;;;;;;65.82;37.80;;;;;;;;;;5093109;28;20183;-75
2020/12/03 07:18:20;;;;;;;66.43;35.80;;;;;;;;;;5092835;28;20208;-76
2020/12/03 07:20:52;;;;;;;63.70;34.80;;;;;;;;;;5086586;28;20184;-75
2020/12/03 07:23:37;;;;;;;62.70;35.30;;;;;;;;;;5073443;28;20180;-75
2020/12/03 07:26:06;;;;;;;59.65;34.55;;;;;;;;;;5080567;28;20183;-76
2020/12/03 07:28:36;;;;;;;64.90;35.40;;;;;;;;;;5078860;28;20294;-75
2020/12/03 07:31:05;;;;;;;67.90;36.10;;;;;;;;;;5073008;28;20259;-78
2020/12/03 07:33:35;;;;;;;68.82;36.63;;;;;;;;;;5072742;28;20234;-78
2020/12/03 07:36:30;;;;;;;65.75;35.80;;;;;;;;;;5073337;28;20199;-77
2020/12/03 07:39:08;;;;;;;60.47;35.45;;;;;;;;;;5072114;28;20212;-77
2020/12/03 07:41:40;;;;;;;62.42;35.92;;;;;;;;;;5072618;28;20210;-76
2020/12/03 07:44:08;;;;;;;64.35;36.42;;;;;;;;;;5072786;28;20180;-75
2020/12/03 07:46:37;;;;;;;63.50;36.10;;;;;;;;;;5091532;28;20266;-77
2020/12/03 07:49:05;;;;;;;64.72;35.58;;;;;;;;;;5092935;28;20560;-74
2020/12/03 07:51:31;;;;;;;64.10;34.80;;;;;;;;;;5092388;28;20195;-75
2020/12/03 07:54:16;;;;;;;64.20;35.20;;;;;;;;;;5080822;28;20215;-80
2020/12/03 07:56:44;;;;;;;63.63;36.00;;;;;;;;;;5088553;28;20572;-77
2020/12/03 07:59:25;;;;;;;66.75;35.45;;;;;;;;;;5083831;28;20200;-78
2020/12/03 08:01:52;;;;;;;65.78;34.70;;;;;;;;;;5074005;28;20232;-80
2020/12/03 08:04:18;;;;;;;62.45;34.20;;;;;;;;;;5071522;28;20591;-78
2020/12/03 08:06:50;;;;;;;62.60;34.00;;;;;;;;;;5078500;28;20214;-80
2020/12/03 08:09:17;;;;;;;55.55;33.10;;;;;;;;;;5072628;28;20310;-82
2020/12/03 08:11:59;;;;;;;62.70;35.55;;;;;;;;;;5093439;28;20614;-77
2020/12/03 08:14:40;;;;;;;57.83;33.33;;;;;;;;;;5082193;28;20184;-80
2020/12/03 08:17:18;;;;;;;54.17;31.80;;;;;;;;;;5068982;28;20596;-78
2020/12/03 08:19:45;;;;;;;58.25;32.65;;;;;;;;;;5069259;28;20183;-77
2020/12/03 08:22:30;;;;;;;57.55;33.38;;;;;;;;;;5089149;28;20207;-80
2020/12/03 08:25:04;;;;;;;65.15;35.45;;;;;;;;;;5084095;28;20191;-81
2020/12/03 08:27:30;;;;;;;58.22;33.17;;;;;;;;;;5091870;28;20203;-77
2020/12/03 08:29:56;;;;;;;61.70;33.67;;;;;;;;;;5082992;28;20221;-77
2020/12/03 08:32:22;;;;;;;61.50;34.00;;;;;;;;;;5091475;28;20211;-80
2020/12/03 08:34:48;;;;;;;62.42;34.15;;;;;;;;;;5090226;28;20483;-76
2020/12/03 08:37:18;;;;;;;57.10;34.28;;;;;;;;;;5080478;28;20233;-78
2020/12/03 08:39:49;;;;;;;55.90;33.13;;;;;;;;;;5088971;28;20171;-78
2020/12/03 08:42:15;;;;;;;53.20;31.60;;;;;;;;;;5081698;28;20548;-77
2020/12/03 08:44:42;;;;;;;61.95;33.63;;;;;;;;;;5077192;28;20587;-78
2020/12/03 08:47:10;;;;;;;58.22;33.95;;;;;;;;;;5093612;28;20179;-79
2020/12/03 08:49:43;;;;;;;56.00;34.47;;;;;;;;;;5084768;28;20182;-80
2020/12/03 08:52:09;;;;;;;63.47;35.40;;;;;;;;;;5082215;28;20196;-79
2020/12/03 08:54:35;;;;;;;58.38;32.78;;;;;;;;;;5085354;28;20229;-78
2020/12/03 08:57:11;;;;;;;59.67;33.92;;;;;;;;;;5090403;28;20180;-80
2020/12/03 08:59:42;;;;;;;61.45;35.65;;;;;;;;;;5076049;28;20175;-77
2020/12/03 09:02:10;;;;;;;60.00;33.60;;;;;;;;;;5085824;28;20179;-80
2020/12/03 09:04:37;;;;;;;57.25;32.88;;;;;;;;;;5084846;28;20179;-78
2020/12/03 09:07:08;;;;;;;57.25;31.25;;;;;;;;;;5071625;28;20185;-78
2020/12/03 09:09:36;;;;;;;60.22;33.15;;;;;;;;;;5082009;28;20199;-76
2020/12/03 09:12:02;;;;;;;58.88;33.90;;;;;;;;;;5071946;28;20222;-76
2020/12/03 09:14:30;;;;;;;55.67;32.40;;;;;;;;;;5075628;28;20207;-75
2020/12/03 09:16:59;;;;;;;60.88;33.45;;;;;;;;;;5071490;28;20212;-76
2020/12/03 09:19:26;;;;;;;54.15;34.00;;;;;;;;;;5072654;28;20200;-79
2020/12/03 09:21:52;;;;;;;60.63;33.25;;;;;;;;;;5071908;28;20214;-77
2020/12/03 09:24:22;;;;;;;60.03;35.20;;;;;;;;;;5084471;28;20193;-79
2020/12/03 09:26:49;;;;;;;52.78;31.85;;;;;;;;;;5070349;28;20195;-79
2020/12/03 09:29:15;;;;;;;58.90;33.28;;;;;;;;;;5082911;28;20196;-78
2020/12/03 09:31:41;;;;;;;53.55;31.77;;;;;;;;;;5076418;28;20196;-77
2020/12/03 09:34:09;;;;;;;56.05;31.88;;;;;;;;;;5072449;28;21019;-76
2020/12/03 09:36:36;;;;;;;56.22;33.03;;;;;;;;;;5076417;28;20262;-75
2020/12/03 09:39:04;;;;;;;54.72;32.42;;;;;;;;;;5091148;28;20199;-77
2020/12/03 09:41:30;;;;;;;56.83;32.90;;;;;;;;;;5090256;28;20194;-76
2020/12/03 09:43:59;;;;;;;53.60;33.60;;;;;;;;;;5075591;28;20192;-75
2020/12/03 09:46:28;;;;;;;58.65;34.28;;;;;;;;;;5088433;28;20182;-82
2020/12/03 09:48:54;;;;;;;57.38;32.80;;;;;;;;;;5079893;28;20207;-79
2020/12/03 09:51:21;;;;;;;53.50;32.85;;;;;;;;;;5081242;28;20263;-78
2020/12/03 09:53:48;;;;;;;56.08;32.08;;;;;;;;;;5082002;28;20180;-78
2020/12/03 09:56:14;;;;;;;50.33;32.70;;;;;;;;;;5070998;28;20188;-79
2020/12/03 09:58:40;;;;;;;52.35;30.05;;;;;;;;;;5087445;28;20202;-77
2020/12/03 10:01:08;;;;;;;54.58;33.42;;;;;;;;;;5078587;28;20206;-79
2020/12/03 10:03:45;;;;;;;57.78;32.17;;;;;;;;;;5087560;28;20236;-77
2020/12/03 10:06:19;;;;;;;52.40;30.75;;;;;;;;;;5090159;28;20539;-79
2020/12/03 10:09:02;;;;;;;53.30;32.33;;;;;;;;;;5090321;28;20217;-79
2020/12/03 10:11:46;;;;;;;57.17;32.45;;;;;;;;;;5080182;28;20200;-78
2020/12/03 10:14:26;;;;;;;52.95;31.10;;;;;;;;;;5085850;28;20545;-80
2020/12/03 10:17:03;;;;;;;53.85;31.40;;;;;;;;;;5090045;28;20183;-80
2020/12/03 10:19:30;;;;;;;53.63;31.63;;;;;;;;;;5083037;28;20262;-79
2020/12/03 10:21:58;;;;;;;50.03;30.45;;;;;;;;;;5082353;28;20419;-79
2020/12/03 10:24:25;;;;;;;49.67;30.20;;;;;;;;;;5089893;28;20187;-77
2020/12/03 10:26:57;;;;;;;51.58;30.92;;;;;;;;;;5088758;28;20187;-79
2020/12/03 10:29:33;;;;;;;56.97;32.30;;;;;;;;;;5084716;28;20660;-79
2020/12/03 10:31:59;;;;;;;52.42;31.05;;;;;;;;;;5073428;28;20206;-78
2020/12/03 10:34:30;;;;;;;55.33;30.85;;;;;;;;;;5087347;28;20175;-78
2020/12/03 10:37:04;;;;;;;51.05;29.67;;;;;;;;;;5090204;28;20587;-78
2020/12/03 10:39:33;;;;;;;51.92;30.58;;;;;;;;;;5090088;28;20209;-80
2020/12/03 10:42:01;;;;;;;51.38;32.10;;;;;;;;;;5084277;28;20514;-79
2020/12/03 10:44:28;;;;;;;51.95;30.50;;;;;;;;;;5074015;28;20187;-78
2020/12/03 10:46:57;;;;;;;53.33;30.23;;;;;;;;;;5069678;28;20188;-79
2020/12/03 10:49:24;;;;;;;49.13;30.00;;;;;;;;;;5086045;28;20575;-77
2020/12/03 10:51:51;;;;;;;46.55;28.92;;;;;;;;;;5079346;28;20242;-79
2020/12/03 10:54:19;;;;;;;50.33;29.70;;;;;;;;;;5092323;28;20215;-80
2020/12/03 10:56:47;;;;;;;56.08;30.95;;;;;;;;;;5087596;28;20171;-82
2020/12/03 10:59:52;;;;;;;48.42;28.83;;;;;;;;;;5072288;28;20287;-81
2020/12/03 11:02:27;;;;;;;52.83;29.52;;;;;;;;;;5089499;28;20280;-80
2020/12/03 11:04:53;;;;;;;51.40;30.27;;;;;;;;;;5078594;28;20697;-78
2020/12/03 11:07:20;;;;;;;52.03;29.73;;;;;;;;;;5075964;28;20621;-82
2020/12/03 11:09:50;;;;;;;49.78;29.13;;;;;;;;;;5090959;28;20547;-80
2020/12/03 11:12:16;;;;;;;46.90;28.52;;;;;;;;;;5088302;28;20214;-79
2020/12/03 11:14:43;;;;;;;47.25;28.50;;;;;;;;;;5089146;28;20203;-81
2020/12/03 11:17:22;;;;;;;44.10;28.85;;;;;;;;;;5087627;28;20182;-77
2020/12/03 11:19:50;;;;;;;53.17;31.25;;;;;;;;;;5089401;28;20172;-78
2020/12/03 11:22:27;;;;;;;49.53;28.52;;;;;;;;;;5088502;28;20213;-76
2020/12/03 11:24:59;;;;;;;46.20;27.85;;;;;;;;;;5088947;28;20174;-78
2020/12/03 11:27:25;;;;;;;46.60;27.02;;;;;;;;;;5088652;28;20203;-79
2020/12/03 11:29:51;;;;;;;43.70;26.58;;;;;;;;;;5073415;28;20184;-77
2020/12/03 11:32:21;;;;;;;44.35;28.02;;;;;;;;;;5069751;28;20294;-77
2020/12/03 11:34:47;;;;;;;44.75;26.75;;;;;;;;;;5068953;28;20716;-76
2020/12/03 11:37:14;;;;;;;44.78;27.00;;;;;;;;;;5079276;28;20206;-81
2020/12/03 11:39:40;;;;;;;48.20;26.75;;;;;;;;;;5089443;28;20182;-81
2020/12/03 11:43:06;;;;;;;46.83;27.48;;;;;;;;;;5084026;28;20195;-81
2020/12/03 11:50:37;;;;;;;45.22;27.95;;;;;;;;;;5077561;28;20187;-78
2020/12/03 11:53:05;;;;;;;46.95;27.88;;;;;;;;;;5086850;28;20614;-80
2020/12/03 11:55:31;;;;;;;45.50;27.23;;;;;;;;;;5070697;28;20211;-76
2020/12/03 11:58:07;;;;;;;47.92;27.52;;;;;;;;;;5076650;28;20210;-77
2020/12/03 12:00:33;;;;;;;49.90;28.30;;;;;;;;;;5089611;28;20182;-76
2020/12/03 12:03:04;;;;;;;43.15;25.58;;;;;;;;;;5092884;28;20197;-78
2020/12/03 12:10:40;;;;;;;46.03;27.13;;;;;;;;;;5090151;28;20218;-78
2020/12/03 12:13:06;;;;;;;41.83;25.90;;;;;;;;;;5080369;28;20256;-78
2020/12/03 12:15:32;;;;;;;43.10;25.85;;;;;;;;;;5092385;28;20172;-79
2020/12/03 12:17:58;;;;;;;45.42;26.45;;;;;;;;;;5092844;28;20768;-77
2020/12/03 12:20:24;;;;;;;43.80;28.35;;;;;;;;;;5092926;28;20179;-76
2020/12/03 12:22:50;;;;;;;44.83;27.40;;;;;;;;;;5093102;28;20198;-79
2020/12/03 12:25:17;;;;;;;41.70;27.27;;;;;;;;;;5093134;28;20187;-81
2020/12/03 12:27:43;;;;;;;48.40;27.52;;;;;;;;;;5093707;28;20559;-77
2020/12/03 12:30:09;;;;;;;43.63;25.88;;;;;;;;;;5086188;28;20188;-77
2020/12/03 12:32:35;;;;;;;45.70;26.45;;;;;;;;;;5075593;28;20548;-78
2020/12/03 12:35:01;;;;;;;40.97;25.20;;;;;;;;;;5075223;28;20672;-78
2020/12/03 12:37:27;;;;;;;42.40;25.52;;;;;;;;;;5080335;28;20210;-78
2020/12/03 12:39:53;;;;;;;42.15;26.35;;;;;;;;;;5083890;28;20199;-79
2020/12/03 12:42:24;;;;;;;46.85;27.83;;;;;;;;;;5093311;28;20183;-77
2020/12/03 12:44:50;;;;;;;39.95;24.23;;;;;;;;;;5087783;28;20535;-78
2020/12/03 12:47:16;;;;;;;43.28;25.50;;;;;;;;;;5077735;28;20200;-79
2020/12/03 12:49:42;;;;;;;42.25;26.92;;;;;;;;;;5089173;28;20183;-79
2020/12/03 12:52:08;;;;;;;43.88;25.77;;;;;;;;;;5094228;28;20199;-79
2020/12/03 12:54:34;;;;;;;38.72;26.50;;;;;;;;;;5089819;28;20188;-80
2020/12/03 12:57:02;;;;;;;42.15;25.92;;;;;;;;;;5083635;28;20180;-79
2020/12/03 12:59:28;;;;;;;41.72;24.23;;;;;;;;;;5080864;28;20267;-77
2020/12/03 13:01:54;;;;;;;40.40;25.08;;;;;;;;;;5082876;28;20183;-77
2020/12/03 13:04:20;;;;;;;40.83;24.48;;;;;;;;;;5077590;28;20189;-76
2020/12/03 13:06:47;;;;;;;37.95;24.13;;;;;;;;;;5071870;28;20636;-77
2020/12/03 13:09:13;;;;;;;42.35;26.63;;;;;;;;;;5078940;28;20260;-80
2020/12/03 13:11:39;;;;;;;42.85;25.20;;;;;;;;;;5082800;28;20609;-78
2020/12/03 13:14:10;;;;;;;36.88;23.33;;;;;;;;;;5091482;28;20179;-77
2020/12/03 13:16:37;;;;;;;39.90;25.10;;;;;;;;;;5092309;28;20187;-80
2020/12/03 13:19:04;;;;;;;39.75;24.30;;;;;;;;;;5091714;28;20226;-75
2020/12/03 13:21:31;;;;;;;37.80;24.15;;;;;;;;;;5091882;28;20262;-77
2020/12/03 13:23:57;;;;;;;36.88;24.90;;;;;;;;;;5086428;28;20642;-77
2020/12/03 13:26:23;;;;;;;36.75;24.05;;;;;;;;;;5072418;28;20180;-79
2020/12/03 13:28:49;;;;;;;40.08;25.15;;;;;;;;;;5085255;28;20204;-77
2020/12/03 13:31:16;;;;;;;39.80;25.58;;;;;;;;;;5079823;28;20179;-77
2020/12/03 13:33:42;;;;;;;39.17;24.50;;;;;;;;;;5077961;28;20518;-78
2020/12/03 13:36:08;;;;;;;41.15;24.95;;;;;;;;;;5074832;28;20188;-76
2020/12/03 13:38:34;;;;;;;37.03;23.45;;;;;;;;;;5084203;28;20192;-77
2020/12/03 13:41:00;;;;;;;37.20;23.50;;;;;;;;;;5090881;28;20269;-75
2020/12/03 13:43:27;;;;;;;36.63;23.67;;;;;;;;;;5090766;28;20212;-79
2020/12/03 13:45:55;;;;;;;35.03;22.42;;;;;;;;;;5090680;28;20175;-77
2020/12/03 13:48:21;;;;;;;36.97;24.10;;;;;;;;;;5085524;28;20238;-76
2020/12/03 13:50:47;;;;;;;36.55;22.45;;;;;;;;;;5079885;28;20179;-78
2020/12/03 13:53:13;;;;;;;37.83;22.55;;;;;;;;;;5087083;28;20204;-75
2020/12/03 13:55:39;;;;;;;38.95;23.98;;;;;;;;;;5081717;28;20286;-77
2020/12/03 13:58:05;;;;;;;37.25;23.50;;;;;;;;;;5085939;28;20196;-76
2020/12/03 14:00:32;;;;;;;35.08;22.27;;;;;;;;;;5081015;28;20176;-78
2020/12/03 14:02:58;;;;;;;32.08;21.60;;;;;;;;;;5083784;28;20716;-78
2020/12/03 14:05:24;;;;;;;35.83;22.17;;;;;;;;;;5083414;28;20187;-79
2020/12/03 14:07:50;;;;;;;37.05;21.70;;;;;;;;;;5090923;28;20215;-80
2020/12/03 14:10:17;;;;;;;34.30;21.20;;;;;;;;;;5092194;28;20187;-78
2020/12/03 14:12:43;;;;;;;35.35;22.15;;;;;;;;;;5078277;28;20561;-76
2020/12/03 14:15:09;;;;;;;32.22;19.67;;;;;;;;;;5090245;28;20690;-79
2020/12/03 14:17:35;;;;;;;33.10;20.48;;;;;;;;;;5073695;28;20663;-77
2020/12/03 14:20:01;;;;;;;31.20;21.35;;;;;;;;;;5072993;28;20222;-78
2020/12/03 14:22:30;;;;;;;34.42;21.55;;;;;;;;;;5074193;28;20294;-78
2020/12/03 14:24:57;;;;;;;36.28;21.70;;;;;;;;;;5071135;28;20787;-76
2020/12/03 14:27:23;;;;;;;36.72;22.48;;;;;;;;;;5087181;28;20203;-78
2020/12/03 14:29:49;;;;;;;34.85;20.85;;;;;;;;;;5081512;28;20637;-76
2020/12/03 14:32:15;;;;;;;32.33;20.42;;;;;;;;;;5073749;28;20212;-78
2020/12/03 14:34:41;;;;;;;31.50;19.95;;;;;;;;;;5079154;28;20541;-78
2020/12/03 14:37:07;;;;;;;30.90;20.27;;;;;;;;;;5081353;28;20184;-78